sensor_id;sensor_type;location;lat;lon;timestamp;P1;durP1;ratioP1;P2;durP2;ratioP2
33836;SDS011;20140;49.356;8.812;2022-12-18T00:00:46;27.80;;;17.58;;
33836;SDS011;20140;49.356;8.812;2022-12-18T00:03:12;31.23;;;19.00;;
33836;SDS011;20140;49.356;8.812;2022-12-18T00:05:45;37.17;;;21.40;;
33836;SDS011;20140;49.356;8.812;2022-12-18T00:08:12;36.78;;;22.33;;
33836;SDS011;20140;49.356;8.812;2022-12-18T00:10:38;32.05;;;20.25;;
33836;SDS011;20140;49.356;8.812;2022-12-18T00:13:03;45.00;;;23.90;;
33836;SDS011;20140;49.356;8.812;2022-12-18T00:15:29;31.67;;;19.73;;
33836;SDS011;20140;49.356;8.812;2022-12-18T00:17:54;36.43;;;21.37;;
33836;SDS011;20140;49.356;8.812;2022-12-18T00:20:20;34.10;;;19.17;;
33836;SDS011;20140;49.356;8.812;2022-12-18T00:22:50;58.97;;;34.95;;
33836;SDS011;20140;49.356;8.812;2022-12-18T00:25:16;41.83;;;25.88;;
33836;SDS011;20140;49.356;8.812;2022-12-18T00:27:42;32.33;;;17.70;;
33836;SDS011;20140;49.356;8.812;2022-12-18T00:30:08;30.43;;;17.13;;
33836;SDS011;20140;49.356;8.812;2022-12-18T00:32:34;29.77;;;16.35;;
33836;SDS011;20140;49.356;8.812;2022-12-18T00:34:59;31.07;;;18.83;;
33836;SDS011;20140;49.356;8.812;2022-12-18T00:37:25;39.35;;;23.48;;
33836;SDS011;20140;49.356;8.812;2022-12-18T00:39:50;32.10;;;20.30;;
33836;SDS011;20140;49.356;8.812;2022-12-18T00:42:16;27.43;;;17.23;;
33836;SDS011;20140;49.356;8.812;2022-12-18T00:45:00;29.05;;;17.23;;
33836;SDS011;20140;49.356;8.812;2022-12-18T00:47:25;27.47;;;16.43;;
33836;SDS011;20140;49.356;8.812;2022-12-18T00:49:51;31.90;;;14.90;;
33836;SDS011;20140;49.356;8.812;2022-12-18T00:52:16;26.75;;;18.13;;
33836;SDS011;20140;49.356;8.812;2022-12-18T00:54:42;27.47;;;17.73;;
33836;SDS011;20140;49.356;8.812;2022-12-18T00:57:07;35.20;;;21.33;;
33836;SDS011;20140;49.356;8.812;2022-12-18T00:59:33;32.97;;;18.70;;
33836;SDS011;20140;49.356;8.812;2022-12-18T01:01:58;27.10;;;16.98;;
33836;SDS011;20140;49.356;8.812;2022-12-18T01:04:24;25.08;;;14.88;;
33836;SDS011;20140;49.356;8.812;2022-12-18T01:06:49;32.07;;;18.97;;
33836;SDS011;20140;49.356;8.812;2022-12-18T01:09:15;41.30;;;23.63;;
33836;SDS011;20140;49.356;8.812;2022-12-18T01:11:41;54.55;;;30.90;;
33836;SDS011;20140;49.356;8.812;2022-12-18T01:14:06;43.67;;;23.40;;
33836;SDS011;20140;49.356;8.812;2022-12-18T01:16:32;56.93;;;31.13;;
33836;SDS011;20140;49.356;8.812;2022-12-18T01:18:58;65.03;;;33.10;;
33836;SDS011;20140;49.356;8.812;2022-12-18T01:21:23;53.13;;;29.43;;
33836;SDS011;20140;49.356;8.812;2022-12-18T01:23:55;43.92;;;26.17;;
33836;SDS011;20140;49.356;8.812;2022-12-18T01:26:22;36.53;;;21.58;;
33836;SDS011;20140;49.356;8.812;2022-12-18T01:28:49;38.45;;;22.45;;
33836;SDS011;20140;49.356;8.812;2022-12-18T01:31:19;52.93;;;27.40;;
33836;SDS011;20140;49.356;8.812;2022-12-18T01:33:49;41.60;;;23.25;;
33836;SDS011;20140;49.356;8.812;2022-12-18T01:36:24;34.85;;;20.10;;
33836;SDS011;20140;49.356;8.812;2022-12-18T01:38:52;31.55;;;18.73;;
33836;SDS011;20140;49.356;8.812;2022-12-18T01:41:19;41.45;;;24.25;;
33836;SDS011;20140;49.356;8.812;2022-12-18T01:46:18;31.10;;;19.17;;
33836;SDS011;20140;49.356;8.812;2022-12-18T01:48:46;36.17;;;21.98;;
33836;SDS011;20140;49.356;8.812;2022-12-18T01:51:13;38.95;;;22.02;;
33836;SDS011;20140;49.356;8.812;2022-12-18T01:53:40;38.97;;;22.88;;
33836;SDS011;20140;49.356;8.812;2022-12-18T01:56:07;55.55;;;30.75;;
33836;SDS011;20140;49.356;8.812;2022-12-18T01:58:54;38.22;;;22.38;;
33836;SDS011;20140;49.356;8.812;2022-12-18T02:01:29;30.90;;;17.20;;
33836;SDS011;20140;49.356;8.812;2022-12-18T02:03:55;29.08;;;17.15;;
33836;SDS011;20140;49.356;8.812;2022-12-18T02:06:39;27.70;;;17.43;;
33836;SDS011;20140;49.356;8.812;2022-12-18T02:09:09;27.17;;;15.73;;
33836;SDS011;20140;49.356;8.812;2022-12-18T02:11:48;21.23;;;14.45;;
33836;SDS011;20140;49.356;8.812;2022-12-18T02:14:38;22.05;;;13.68;;
33836;SDS011;20140;49.356;8.812;2022-12-18T02:17:17;23.35;;;14.77;;
33836;SDS011;20140;49.356;8.812;2022-12-18T02:22:29;24.73;;;14.35;;
33836;SDS011;20140;49.356;8.812;2022-12-18T02:25:38;21.13;;;13.20;;
33836;SDS011;20140;49.356;8.812;2022-12-18T02:28:06;24.75;;;15.00;;
33836;SDS011;20140;49.356;8.812;2022-12-18T02:30:36;23.88;;;13.75;;
33836;SDS011;20140;49.356;8.812;2022-12-18T02:33:04;23.63;;;15.40;;
33836;SDS011;20140;49.356;8.812;2022-12-18T02:35:31;26.35;;;14.48;;
33836;SDS011;20140;49.356;8.812;2022-12-18T02:37:59;28.80;;;17.47;;
33836;SDS011;20140;49.356;8.812;2022-12-18T02:40:26;26.33;;;15.45;;
33836;SDS011;20140;49.356;8.812;2022-12-18T02:42:53;26.10;;;16.98;;
33836;SDS011;20140;49.356;8.812;2022-12-18T02:45:19;26.65;;;15.73;;
33836;SDS011;20140;49.356;8.812;2022-12-18T02:47:45;26.00;;;15.27;;
33836;SDS011;20140;49.356;8.812;2022-12-18T02:50:30;25.42;;;15.27;;
33836;SDS011;20140;49.356;8.812;2022-12-18T03:01:28;27.00;;;14.87;;
33836;SDS011;20140;49.356;8.812;2022-12-18T03:04:12;31.65;;;19.83;;
33836;SDS011;20140;49.356;8.812;2022-12-18T03:07:01;27.92;;;15.63;;
33836;SDS011;20140;49.356;8.812;2022-12-18T03:09:34;25.65;;;15.75;;
33836;SDS011;20140;49.356;8.812;2022-12-18T03:12:07;23.85;;;15.07;;
33836;SDS011;20140;49.356;8.812;2022-12-18T03:14:49;24.48;;;14.95;;
33836;SDS011;20140;49.356;8.812;2022-12-18T03:17:32;27.25;;;16.95;;
33836;SDS011;20140;49.356;8.812;2022-12-18T03:19:59;30.15;;;18.08;;
33836;SDS011;20140;49.356;8.812;2022-12-18T03:22:30;31.55;;;19.92;;
33836;SDS011;20140;49.356;8.812;2022-12-18T03:24:58;29.67;;;18.27;;
33836;SDS011;20140;49.356;8.812;2022-12-18T03:27:28;26.42;;;17.05;;
33836;SDS011;20140;49.356;8.812;2022-12-18T03:30:05;31.63;;;17.38;;
33836;SDS011;20140;49.356;8.812;2022-12-18T03:32:44;28.47;;;16.77;;
33836;SDS011;20140;49.356;8.812;2022-12-18T03:35:29;31.02;;;17.85;;
33836;SDS011;20140;49.356;8.812;2022-12-18T03:37:59;26.63;;;16.60;;
33836;SDS011;20140;49.356;8.812;2022-12-18T03:40:27;27.85;;;15.35;;
33836;SDS011;20140;49.356;8.812;2022-12-18T03:43:02;24.75;;;15.10;;
33836;SDS011;20140;49.356;8.812;2022-12-18T03:45:36;24.30;;;16.55;;
33836;SDS011;20140;49.356;8.812;2022-12-18T03:48:08;26.75;;;15.65;;
33836;SDS011;20140;49.356;8.812;2022-12-18T03:51:06;27.85;;;17.02;;
33836;SDS011;20140;49.356;8.812;2022-12-18T03:53:44;22.95;;;13.98;;
33836;SDS011;20140;49.356;8.812;2022-12-18T03:56:15;25.88;;;16.35;;
33836;SDS011;20140;49.356;8.812;2022-12-18T03:58:42;29.00;;;17.45;;
33836;SDS011;20140;49.356;8.812;2022-12-18T04:01:11;27.05;;;15.75;;
33836;SDS011;20140;49.356;8.812;2022-12-18T04:03:39;24.80;;;15.73;;
33836;SDS011;20140;49.356;8.812;2022-12-18T04:06:07;26.05;;;15.07;;
33836;SDS011;20140;49.356;8.812;2022-12-18T04:08:33;25.38;;;15.60;;
33836;SDS011;20140;49.356;8.812;2022-12-18T04:11:00;27.38;;;16.50;;
33836;SDS011;20140;49.356;8.812;2022-12-18T04:13:36;29.05;;;17.52;;
33836;SDS011;20140;49.356;8.812;2022-12-18T04:16:03;27.80;;;16.63;;
33836;SDS011;20140;49.356;8.812;2022-12-18T04:18:29;29.70;;;18.05;;
33836;SDS011;20140;49.356;8.812;2022-12-18T04:20:55;26.70;;;18.50;;
33836;SDS011;20140;49.356;8.812;2022-12-18T04:23:20;30.33;;;18.53;;
33836;SDS011;20140;49.356;8.812;2022-12-18T04:25:46;30.20;;;18.70;;
33836;SDS011;20140;49.356;8.812;2022-12-18T04:28:12;30.77;;;19.27;;
33836;SDS011;20140;49.356;8.812;2022-12-18T04:30:38;31.10;;;18.08;;
33836;SDS011;20140;49.356;8.812;2022-12-18T04:33:05;31.37;;;18.47;;
33836;SDS011;20140;49.356;8.812;2022-12-18T04:35:34;25.42;;;17.52;;
33836;SDS011;20140;49.356;8.812;2022-12-18T04:37:59;32.53;;;19.63;;
33836;SDS011;20140;49.356;8.812;2022-12-18T04:40:25;31.45;;;19.15;;
33836;SDS011;20140;49.356;8.812;2022-12-18T04:42:50;32.27;;;18.67;;
33836;SDS011;20140;49.356;8.812;2022-12-18T04:45:16;26.60;;;16.87;;
33836;SDS011;20140;49.356;8.812;2022-12-18T04:47:41;31.67;;;17.50;;
33836;SDS011;20140;49.356;8.812;2022-12-18T04:50:07;25.90;;;18.10;;
33836;SDS011;20140;49.356;8.812;2022-12-18T04:52:32;29.15;;;18.77;;
33836;SDS011;20140;49.356;8.812;2022-12-18T04:54:58;28.07;;;18.63;;
33836;SDS011;20140;49.356;8.812;2022-12-18T04:57:23;30.87;;;19.83;;
33836;SDS011;20140;49.356;8.812;2022-12-18T04:59:49;33.00;;;22.52;;
33836;SDS011;20140;49.356;8.812;2022-12-18T05:02:14;36.50;;;23.80;;
33836;SDS011;20140;49.356;8.812;2022-12-18T05:04:40;38.47;;;26.00;;
33836;SDS011;20140;49.356;8.812;2022-12-18T05:07:06;34.33;;;22.23;;
33836;SDS011;20140;49.356;8.812;2022-12-18T05:09:31;34.03;;;23.52;;
33836;SDS011;20140;49.356;8.812;2022-12-18T05:11:57;33.53;;;21.10;;
33836;SDS011;20140;49.356;8.812;2022-12-18T05:14:22;37.73;;;24.83;;
33836;SDS011;20140;49.356;8.812;2022-12-18T05:16:48;30.93;;;19.63;;
33836;SDS011;20140;49.356;8.812;2022-12-18T05:19:13;33.72;;;22.25;;
33836;SDS011;20140;49.356;8.812;2022-12-18T05:21:39;32.83;;;20.37;;
33836;SDS011;20140;49.356;8.812;2022-12-18T05:24:04;36.03;;;24.00;;
33836;SDS011;20140;49.356;8.812;2022-12-18T05:26:30;34.72;;;20.52;;
33836;SDS011;20140;49.356;8.812;2022-12-18T05:28:56;35.53;;;22.63;;
33836;SDS011;20140;49.356;8.812;2022-12-18T05:31:21;32.77;;;22.23;;
33836;SDS011;20140;49.356;8.812;2022-12-18T05:33:47;33.35;;;20.80;;
33836;SDS011;20140;49.356;8.812;2022-12-18T05:36:12;31.25;;;21.42;;
33836;SDS011;20140;49.356;8.812;2022-12-18T05:38:38;41.90;;;26.87;;
33836;SDS011;20140;49.356;8.812;2022-12-18T05:41:04;40.78;;;27.73;;
33836;SDS011;20140;49.356;8.812;2022-12-18T05:43:31;53.20;;;38.43;;
33836;SDS011;20140;49.356;8.812;2022-12-18T05:46:02;36.33;;;25.52;;
33836;SDS011;20140;49.356;8.812;2022-12-18T05:48:31;40.85;;;29.70;;
33836;SDS011;20140;49.356;8.812;2022-12-18T05:51:02;43.43;;;23.23;;
33836;SDS011;20140;49.356;8.812;2022-12-18T05:53:29;36.80;;;26.30;;
33836;SDS011;20140;49.356;8.812;2022-12-18T05:55:59;38.53;;;27.97;;
33836;SDS011;20140;49.356;8.812;2022-12-18T05:58:25;37.97;;;24.30;;
33836;SDS011;20140;49.356;8.812;2022-12-18T06:00:51;56.10;;;32.92;;
33836;SDS011;20140;49.356;8.812;2022-12-18T06:03:16;45.50;;;29.97;;
33836;SDS011;20140;49.356;8.812;2022-12-18T06:05:43;58.93;;;37.07;;
33836;SDS011;20140;49.356;8.812;2022-12-18T06:08:10;75.80;;;43.10;;
33836;SDS011;20140;49.356;8.812;2022-12-18T06:10:36;47.58;;;29.77;;
33836;SDS011;20140;49.356;8.812;2022-12-18T06:13:02;45.10;;;28.08;;
33836;SDS011;20140;49.356;8.812;2022-12-18T06:15:28;54.07;;;34.53;;
33836;SDS011;20140;49.356;8.812;2022-12-18T06:17:53;59.63;;;39.20;;
33836;SDS011;20140;49.356;8.812;2022-12-18T06:20:19;49.55;;;29.40;;
33836;SDS011;20140;49.356;8.812;2022-12-18T06:22:44;55.90;;;37.03;;
33836;SDS011;20140;49.356;8.812;2022-12-18T06:25:10;54.57;;;36.73;;
33836;SDS011;20140;49.356;8.812;2022-12-18T06:27:36;54.28;;;36.67;;
33836;SDS011;20140;49.356;8.812;2022-12-18T06:30:02;59.90;;;36.60;;
33836;SDS011;20140;49.356;8.812;2022-12-18T06:32:28;62.07;;;39.90;;
33836;SDS011;20140;49.356;8.812;2022-12-18T06:34:53;61.47;;;42.42;;
33836;SDS011;20140;49.356;8.812;2022-12-18T06:37:20;50.55;;;31.52;;
33836;SDS011;20140;49.356;8.812;2022-12-18T06:39:46;48.60;;;30.37;;
33836;SDS011;20140;49.356;8.812;2022-12-18T06:42:11;58.28;;;39.92;;
33836;SDS011;20140;49.356;8.812;2022-12-18T06:44:37;58.40;;;34.13;;
33836;SDS011;20140;49.356;8.812;2022-12-18T06:47:02;50.27;;;33.20;;
33836;SDS011;20140;49.356;8.812;2022-12-18T06:49:28;48.70;;;33.95;;
33836;SDS011;20140;49.356;8.812;2022-12-18T06:51:53;47.85;;;33.47;;
33836;SDS011;20140;49.356;8.812;2022-12-18T06:54:19;46.20;;;29.97;;
33836;SDS011;20140;49.356;8.812;2022-12-18T06:56:45;46.93;;;29.70;;
33836;SDS011;20140;49.356;8.812;2022-12-18T06:59:12;54.03;;;32.90;;
33836;SDS011;20140;49.356;8.812;2022-12-18T07:01:38;54.63;;;33.95;;
33836;SDS011;20140;49.356;8.812;2022-12-18T07:04:03;54.73;;;34.87;;
33836;SDS011;20140;49.356;8.812;2022-12-18T07:06:29;62.17;;;39.08;;
33836;SDS011;20140;49.356;8.812;2022-12-18T07:08:55;66.20;;;41.25;;
33836;SDS011;20140;49.356;8.812;2022-12-18T07:11:20;59.90;;;36.80;;
33836;SDS011;20140;49.356;8.812;2022-12-18T07:13:46;60.13;;;42.13;;
33836;SDS011;20140;49.356;8.812;2022-12-18T07:16:16;57.53;;;37.85;;
33836;SDS011;20140;49.356;8.812;2022-12-18T07:18:43;61.47;;;39.70;;
33836;SDS011;20140;49.356;8.812;2022-12-18T07:21:13;58.88;;;38.38;;
33836;SDS011;20140;49.356;8.812;2022-12-18T07:23:41;54.57;;;36.97;;
33836;SDS011;20140;49.356;8.812;2022-12-18T07:26:11;61.42;;;38.75;;
33836;SDS011;20140;49.356;8.812;2022-12-18T07:28:38;56.85;;;36.63;;
33836;SDS011;20140;49.356;8.812;2022-12-18T07:31:06;55.50;;;34.38;;
33836;SDS011;20140;49.356;8.812;2022-12-18T07:33:33;60.60;;;39.60;;
33836;SDS011;20140;49.356;8.812;2022-12-18T07:36:00;59.83;;;39.20;;
33836;SDS011;20140;49.356;8.812;2022-12-18T07:38:27;62.15;;;41.33;;
33836;SDS011;20140;49.356;8.812;2022-12-18T07:40:53;56.58;;;34.50;;
33836;SDS011;20140;49.356;8.812;2022-12-18T07:43:19;59.78;;;39.08;;
33836;SDS011;20140;49.356;8.812;2022-12-18T07:45:44;59.20;;;34.00;;
33836;SDS011;20140;49.356;8.812;2022-12-18T07:48:10;54.17;;;33.70;;
33836;SDS011;20140;49.356;8.812;2022-12-18T07:50:36;59.20;;;36.10;;
33836;SDS011;20140;49.356;8.812;2022-12-18T07:53:02;65.63;;;43.83;;
33836;SDS011;20140;49.356;8.812;2022-12-18T07:55:29;64.00;;;41.35;;
33836;SDS011;20140;49.356;8.812;2022-12-18T07:57:56;57.10;;;37.40;;
33836;SDS011;20140;49.356;8.812;2022-12-18T08:00:21;57.47;;;40.77;;
33836;SDS011;20140;49.356;8.812;2022-12-18T08:02:47;60.75;;;40.20;;
33836;SDS011;20140;49.356;8.812;2022-12-18T08:05:13;75.93;;;51.93;;
33836;SDS011;20140;49.356;8.812;2022-12-18T08:07:38;91.80;;;61.97;;
33836;SDS011;20140;49.356;8.812;2022-12-18T08:10:05;77.07;;;55.45;;
33836;SDS011;20140;49.356;8.812;2022-12-18T08:12:31;55.13;;;35.28;;
33836;SDS011;20140;49.356;8.812;2022-12-18T08:14:57;63.60;;;42.63;;
33836;SDS011;20140;49.356;8.812;2022-12-18T08:17:22;58.70;;;35.80;;
33836;SDS011;20140;49.356;8.812;2022-12-18T08:19:48;77.27;;;52.57;;
33836;SDS011;20140;49.356;8.812;2022-12-18T08:22:13;72.10;;;49.37;;
33836;SDS011;20140;49.356;8.812;2022-12-18T08:24:39;62.90;;;39.65;;
33836;SDS011;20140;49.356;8.812;2022-12-18T08:27:04;64.28;;;42.55;;
33836;SDS011;20140;49.356;8.812;2022-12-18T08:29:30;200.67;;;146.23;;
33836;SDS011;20140;49.356;8.812;2022-12-18T08:31:56;89.65;;;63.70;;
33836;SDS011;20140;49.356;8.812;2022-12-18T08:34:22;60.40;;;42.00;;
33836;SDS011;20140;49.356;8.812;2022-12-18T08:36:47;59.58;;;39.47;;
33836;SDS011;20140;49.356;8.812;2022-12-18T08:39:13;61.40;;;39.13;;
33836;SDS011;20140;49.356;8.812;2022-12-18T08:41:39;58.40;;;38.30;;
33836;SDS011;20140;49.356;8.812;2022-12-18T08:44:04;80.63;;;56.27;;
33836;SDS011;20140;49.356;8.812;2022-12-18T08:46:48;66.82;;;41.50;;
33836;SDS011;20140;49.356;8.812;2022-12-18T08:49:14;57.90;;;38.37;;
33836;SDS011;20140;49.356;8.812;2022-12-18T08:51:39;56.77;;;37.93;;
33836;SDS011;20140;49.356;8.812;2022-12-18T08:54:05;81.65;;;52.72;;
33836;SDS011;20140;49.356;8.812;2022-12-18T08:56:31;99.75;;;71.13;;
33836;SDS011;20140;49.356;8.812;2022-12-18T08:58:57;79.88;;;53.17;;
33836;SDS011;20140;49.356;8.812;2022-12-18T09:01:23;73.75;;;43.65;;
33836;SDS011;20140;49.356;8.812;2022-12-18T09:03:49;77.57;;;52.73;;
33836;SDS011;20140;49.356;8.812;2022-12-18T09:06:16;123.72;;;90.50;;
33836;SDS011;20140;49.356;8.812;2022-12-18T09:08:43;119.95;;;87.20;;
33836;SDS011;20140;49.356;8.812;2022-12-18T09:11:14;90.32;;;61.95;;
33836;SDS011;20140;49.356;8.812;2022-12-18T09:13:43;60.70;;;39.35;;
33836;SDS011;20140;49.356;8.812;2022-12-18T09:16:09;68.80;;;47.90;;
33836;SDS011;20140;49.356;8.812;2022-12-18T09:18:34;66.22;;;44.15;;
33836;SDS011;20140;49.356;8.812;2022-12-18T09:21:06;81.03;;;54.35;;
33836;SDS011;20140;49.356;8.812;2022-12-18T09:23:33;61.25;;;40.47;;
33836;SDS011;20140;49.356;8.812;2022-12-18T09:25:59;83.30;;;57.27;;
33836;SDS011;20140;49.356;8.812;2022-12-18T09:28:24;67.43;;;44.23;;
33836;SDS011;20140;49.356;8.812;2022-12-18T09:30:50;83.93;;;59.63;;
33836;SDS011;20140;49.356;8.812;2022-12-18T09:33:16;68.97;;;43.55;;
33836;SDS011;20140;49.356;8.812;2022-12-18T09:35:43;61.60;;;39.85;;
33836;SDS011;20140;49.356;8.812;2022-12-18T09:38:11;92.72;;;61.78;;
33836;SDS011;20140;49.356;8.812;2022-12-18T09:40:44;110.70;;;77.00;;
33836;SDS011;20140;49.356;8.812;2022-12-18T09:43:17;82.43;;;56.17;;
33836;SDS011;20140;49.356;8.812;2022-12-18T09:45:51;63.65;;;39.65;;
33836;SDS011;20140;49.356;8.812;2022-12-18T09:48:30;69.07;;;42.75;;
33836;SDS011;20140;49.356;8.812;2022-12-18T09:51:04;61.75;;;39.97;;
33836;SDS011;20140;49.356;8.812;2022-12-18T09:53:37;57.97;;;37.88;;
33836;SDS011;20140;49.356;8.812;2022-12-18T09:56:03;65.93;;;42.33;;
33836;SDS011;20140;49.356;8.812;2022-12-18T10:00:59;65.53;;;42.10;;
33836;SDS011;20140;49.356;8.812;2022-12-18T10:03:25;56.83;;;36.17;;
33836;SDS011;20140;49.356;8.812;2022-12-18T10:06:01;65.05;;;40.80;;
33836;SDS011;20140;49.356;8.812;2022-12-18T10:08:42;58.83;;;36.60;;
33836;SDS011;20140;49.356;8.812;2022-12-18T10:20:05;57.20;;;34.58;;
33836;SDS011;20140;49.356;8.812;2022-12-18T10:23:08;53.15;;;34.63;;
33836;SDS011;20140;49.356;8.812;2022-12-18T10:26:05;57.45;;;32.65;;
33836;SDS011;20140;49.356;8.812;2022-12-18T10:28:33;57.73;;;33.53;;
33836;SDS011;20140;49.356;8.812;2022-12-18T10:31:00;56.75;;;34.88;;
33836;SDS011;20140;49.356;8.812;2022-12-18T10:33:30;59.20;;;34.53;;
33836;SDS011;20140;49.356;8.812;2022-12-18T10:35:57;55.50;;;34.95;;
33836;SDS011;20140;49.356;8.812;2022-12-18T10:38:24;50.38;;;31.50;;
33836;SDS011;20140;49.356;8.812;2022-12-18T10:43:35;59.35;;;36.28;;
33836;SDS011;20140;49.356;8.812;2022-12-18T10:48:40;68.45;;;42.40;;
33836;SDS011;20140;49.356;8.812;2022-12-18T10:51:28;76.90;;;47.80;;
33836;SDS011;20140;49.356;8.812;2022-12-18T10:53:57;69.30;;;42.13;;
33836;SDS011;20140;49.356;8.812;2022-12-18T10:56:26;58.33;;;35.65;;
33836;SDS011;20140;49.356;8.812;2022-12-18T10:58:57;61.08;;;35.63;;
33836;SDS011;20140;49.356;8.812;2022-12-18T11:01:28;58.92;;;35.47;;
33836;SDS011;20140;49.356;8.812;2022-12-18T11:04:16;55.53;;;33.65;;
33836;SDS011;20140;49.356;8.812;2022-12-18T11:07:04;60.72;;;37.05;;
33836;SDS011;20140;49.356;8.812;2022-12-18T11:09:32;56.87;;;35.67;;
33836;SDS011;20140;49.356;8.812;2022-12-18T11:12:00;79.47;;;46.83;;
33836;SDS011;20140;49.356;8.812;2022-12-18T11:14:30;70.35;;;43.10;;
33836;SDS011;20140;49.356;8.812;2022-12-18T11:16:59;64.18;;;39.38;;
33836;SDS011;20140;49.356;8.812;2022-12-18T11:19:35;88.13;;;55.10;;
33836;SDS011;20140;49.356;8.812;2022-12-18T11:27:37;69.97;;;44.80;;
33836;SDS011;20140;49.356;8.812;2022-12-18T11:30:08;60.97;;;37.85;;
33836;SDS011;20140;49.356;8.812;2022-12-18T11:33:06;50.67;;;31.67;;
33836;SDS011;20140;49.356;8.812;2022-12-18T11:35:54;61.35;;;37.42;;
33836;SDS011;20140;49.356;8.812;2022-12-18T11:38:27;59.58;;;36.00;;
33836;SDS011;20140;49.356;8.812;2022-12-18T11:41:24;49.35;;;30.63;;
33836;SDS011;20140;49.356;8.812;2022-12-18T11:44:14;50.03;;;31.48;;
33836;SDS011;20140;49.356;8.812;2022-12-18T11:46:51;56.38;;;35.60;;
33836;SDS011;20140;49.356;8.812;2022-12-18T11:49:25;53.50;;;33.80;;
33836;SDS011;20140;49.356;8.812;2022-12-18T11:51:58;59.53;;;37.20;;
33836;SDS011;20140;49.356;8.812;2022-12-18T11:54:29;54.75;;;34.95;;
33836;SDS011;20140;49.356;8.812;2022-12-18T11:56:56;54.40;;;32.30;;
33836;SDS011;20140;49.356;8.812;2022-12-18T11:59:32;53.30;;;34.97;;
33836;SDS011;20140;49.356;8.812;2022-12-18T12:07:34;51.77;;;33.37;;
33836;SDS011;20140;49.356;8.812;2022-12-18T12:10:20;51.22;;;33.72;;
33836;SDS011;20140;49.356;8.812;2022-12-18T12:19:00;55.97;;;36.03;;
33836;SDS011;20140;49.356;8.812;2022-12-18T12:21:50;61.40;;;37.42;;
33836;SDS011;20140;49.356;8.812;2022-12-18T12:24:38;61.20;;;37.28;;
33836;SDS011;20140;49.356;8.812;2022-12-18T12:30:00;55.50;;;35.85;;
33836;SDS011;20140;49.356;8.812;2022-12-18T12:32:53;61.33;;;37.13;;
33836;SDS011;20140;49.356;8.812;2022-12-18T12:35:42;49.72;;;30.60;;
33836;SDS011;20140;49.356;8.812;2022-12-18T12:38:15;54.20;;;31.90;;
33836;SDS011;20140;49.356;8.812;2022-12-18T12:40:59;53.30;;;34.28;;
33836;SDS011;20140;49.356;8.812;2022-12-18T12:43:31;52.35;;;31.15;;
33836;SDS011;20140;49.356;8.812;2022-12-18T12:46:04;53.88;;;34.97;;
33836;SDS011;20140;49.356;8.812;2022-12-18T12:48:51;51.88;;;33.03;;
33836;SDS011;20140;49.356;8.812;2022-12-18T12:51:20;46.67;;;28.98;;
33836;SDS011;20140;49.356;8.812;2022-12-18T12:53:48;45.13;;;26.63;;
33836;SDS011;20140;49.356;8.812;2022-12-18T12:56:15;45.88;;;26.60;;
33836;SDS011;20140;49.356;8.812;2022-12-18T13:01:50;53.70;;;28.52;;
33836;SDS011;20140;49.356;8.812;2022-12-18T13:05:06;47.78;;;27.45;;
33836;SDS011;20140;49.356;8.812;2022-12-18T13:07:27;50.17;;;27.90;;
33836;SDS011;20140;49.356;8.812;2022-12-18T13:12:56;46.88;;;26.55;;
33836;SDS011;20140;49.356;8.812;2022-12-18T13:18:15;46.10;;;27.00;;
33836;SDS011;20140;49.356;8.812;2022-12-18T13:34:18;74.50;;;41.53;;
33836;SDS011;20140;49.356;8.812;2022-12-18T13:36:44;46.60;;;25.75;;
33836;SDS011;20140;49.356;8.812;2022-12-18T13:41:39;44.15;;;24.95;;
33836;SDS011;20140;49.356;8.812;2022-12-18T13:44:12;49.65;;;25.88;;
33836;SDS011;20140;49.356;8.812;2022-12-18T13:46:48;48.55;;;24.92;;
33836;SDS011;20140;49.356;8.812;2022-12-18T13:49:23;42.57;;;25.20;;
33836;SDS011;20140;49.356;8.812;2022-12-18T13:52:01;46.83;;;26.27;;
33836;SDS011;20140;49.356;8.812;2022-12-18T13:57:01;42.22;;;24.98;;
33836;SDS011;20140;49.356;8.812;2022-12-18T13:59:35;48.97;;;26.85;;
33836;SDS011;20140;49.356;8.812;2022-12-18T14:04:40;51.20;;;27.95;;
33836;SDS011;20140;49.356;8.812;2022-12-18T14:07:10;46.97;;;26.10;;
33836;SDS011;20140;49.356;8.812;2022-12-18T14:12:24;48.20;;;27.70;;
33836;SDS011;20140;49.356;8.812;2022-12-18T14:17:51;51.95;;;30.02;;
33836;SDS011;20140;49.356;8.812;2022-12-18T14:20:18;48.63;;;25.00;;
33836;SDS011;20140;49.356;8.812;2022-12-18T14:22:45;52.00;;;28.25;;
33836;SDS011;20140;49.356;8.812;2022-12-18T14:27:50;46.53;;;26.83;;
33836;SDS011;20140;49.356;8.812;2022-12-18T14:30:38;47.72;;;26.38;;
33836;SDS011;20140;49.356;8.812;2022-12-18T14:33:13;46.10;;;24.33;;
33836;SDS011;20140;49.356;8.812;2022-12-18T14:35:54;41.70;;;23.90;;
33836;SDS011;20140;49.356;8.812;2022-12-18T14:41:00;45.10;;;24.50;;
33836;SDS011;20140;49.356;8.812;2022-12-18T14:43:54;46.08;;;24.98;;
33836;SDS011;20140;49.356;8.812;2022-12-18T14:46:34;46.45;;;24.67;;
33836;SDS011;20140;49.356;8.812;2022-12-18T14:49:02;42.92;;;23.77;;
33836;SDS011;20140;49.356;8.812;2022-12-18T14:51:53;45.63;;;25.52;;
33836;SDS011;20140;49.356;8.812;2022-12-18T14:54:20;45.03;;;25.33;;
33836;SDS011;20140;49.356;8.812;2022-12-18T14:56:48;43.55;;;25.42;;
33836;SDS011;20140;49.356;8.812;2022-12-18T14:59:29;43.22;;;24.92;;
33836;SDS011;20140;49.356;8.812;2022-12-18T15:04:46;43.70;;;24.67;;
33836;SDS011;20140;49.356;8.812;2022-12-18T15:07:13;47.88;;;25.23;;
33836;SDS011;20140;49.356;8.812;2022-12-18T15:10:01;44.00;;;24.38;;
33836;SDS011;20140;49.356;8.812;2022-12-18T15:12:34;44.72;;;25.05;;
33836;SDS011;20140;49.356;8.812;2022-12-18T15:15:02;43.28;;;23.75;;
33836;SDS011;20140;49.356;8.812;2022-12-18T15:17:29;45.70;;;25.27;;
33836;SDS011;20140;49.356;8.812;2022-12-18T15:19:58;43.70;;;24.75;;
33836;SDS011;20140;49.356;8.812;2022-12-18T15:22:30;45.28;;;23.90;;
33836;SDS011;20140;49.356;8.812;2022-12-18T15:25:00;42.67;;;24.20;;
33836;SDS011;20140;49.356;8.812;2022-12-18T15:27:30;43.95;;;25.52;;
33836;SDS011;20140;49.356;8.812;2022-12-18T15:30:03;46.30;;;24.08;;
33836;SDS011;20140;49.356;8.812;2022-12-18T15:32:45;45.58;;;25.27;;
33836;SDS011;20140;49.356;8.812;2022-12-18T15:37:44;44.40;;;24.15;;
33836;SDS011;20140;49.356;8.812;2022-12-18T15:40:14;44.40;;;24.90;;
33836;SDS011;20140;49.356;8.812;2022-12-18T15:42:42;49.03;;;25.38;;
33836;SDS011;20140;49.356;8.812;2022-12-18T15:45:27;48.07;;;25.50;;
33836;SDS011;20140;49.356;8.812;2022-12-18T15:47:53;49.63;;;25.33;;
33836;SDS011;20140;49.356;8.812;2022-12-18T15:50:19;45.63;;;25.17;;
33836;SDS011;20140;49.356;8.812;2022-12-18T15:52:45;44.00;;;25.10;;
33836;SDS011;20140;49.356;8.812;2022-12-18T15:55:16;47.03;;;25.65;;
33836;SDS011;20140;49.356;8.812;2022-12-18T15:58:02;46.85;;;25.35;;
33836;SDS011;20140;49.356;8.812;2022-12-18T16:00:28;46.72;;;25.05;;
33836;SDS011;20140;49.356;8.812;2022-12-18T16:02:53;46.38;;;26.02;;
33836;SDS011;20140;49.356;8.812;2022-12-18T16:05:19;49.33;;;26.20;;
33836;SDS011;20140;49.356;8.812;2022-12-18T16:07:49;45.58;;;25.02;;
33836;SDS011;20140;49.356;8.812;2022-12-18T16:10:16;41.72;;;24.50;;
33836;SDS011;20140;49.356;8.812;2022-12-18T16:12:42;43.40;;;25.33;;
33836;SDS011;20140;49.356;8.812;2022-12-18T16:15:10;47.30;;;28.55;;